Time;durP1;ratioP1;P1;durP2;ratioP2;P2;SDS_P1;SDS_P2;PMS_P1;PMS_P2;Temp;Humidity;BMP_temperature;BMP_pressure;BME280_temperature;BME280_humidity;BME280_pressure;Samples;Min_cycle;Max_cycle;Signal;HPM_P1;HPM_P2
2021/12/27 00:00:15;;;;;;;13.40;8.75;;;-0.80;99.90;;;;;;5113662;28;20047;-76
2021/12/27 00:02:41;;;;;;;11.13;6.85;;;-0.60;99.90;;;;;;5113590;28;20055;-74
2021/12/27 00:05:07;;;;;;;10.25;5.72;;;0.20;99.90;;;;;;5113576;28;20044;-75
2021/12/27 00:07:33;;;;;;;10.75;7.15;;;-0.70;99.90;;;;;;5096354;28;20055;-74
2021/12/27 00:10:00;;;;;;;11.35;7.00;;;0.00;99.90;;;;;;5113117;28;20062;-74
2021/12/27 00:12:27;;;;;;;10.13;5.68;;;-0.50;99.90;;;;;;5095568;28;20097;-75
2021/12/27 00:14:53;;;;;;;8.25;5.28;;;0.10;99.90;;;;;;5113444;28;20047;-75
2021/12/27 00:17:19;;;;;;;10.05;6.60;;;0.20;99.90;;;;;;5113349;28;20504;-75
2021/12/27 00:19:44;;;;;;;12.10;5.50;;;-0.80;99.90;;;;;;5095308;28;20047;-72
2021/12/27 00:22:10;;;;;;;11.80;7.00;;;-1.10;99.90;;;;;;5113322;28;20053;-74
2021/12/27 00:24:36;;;;;;;10.93;6.47;;;-0.90;99.90;;;;;;5095401;28;20124;-72
2021/12/27 00:27:02;;;;;;;9.95;5.68;;;-0.80;99.90;;;;;;5113114;28;20079;-75
2021/12/27 00:29:28;;;;;;;12.50;6.60;;;-0.80;99.90;;;;;;5114237;28;20056;-75
2021/12/27 00:31:54;;;;;;;10.50;5.85;;;-0.10;99.90;;;;;;5079205;28;20044;-75
2021/12/27 00:34:19;;;;;;;11.35;7.07;;;-0.80;99.90;;;;;;5078884;28;20081;-75
2021/12/27 00:36:45;;;;;;;13.07;7.03;;;-0.20;99.90;;;;;;5113373;28;20398;-75
2021/12/27 00:39:11;;;;;;;8.95;6.05;;;0.10;99.90;;;;;;5113610;28;20048;-75
2021/12/27 00:41:36;;;;;;;13.40;6.57;;;-0.10;99.90;;;;;;5095452;28;20055;-75
2021/12/27 00:44:02;;;;;;;10.23;6.72;;;-1.00;99.90;;;;;;5062968;28;20050;-75
2021/12/27 00:46:28;;;;;;;8.82;6.07;;;-0.90;99.90;;;;;;5095383;28;20055;-75
2021/12/27 00:48:53;;;;;;;11.48;6.82;;;-0.90;99.90;;;;;;5113373;28;20104;-75
2021/12/27 00:51:19;;;;;;;12.93;6.60;;;-0.60;99.90;;;;;;5095859;28;20051;-75
2021/12/27 00:53:45;;;;;;;10.57;5.85;;;-0.50;99.90;;;;;;5099969;28;20043;-75
2021/12/27 00:56:11;;;;;;;9.82;6.00;;;0.00;99.90;;;;;;5098955;28;20055;-75
2021/12/27 00:58:36;;;;;;;11.38;6.00;;;-1.00;99.90;;;;;;5117040;28;20043;-75
2021/12/27 01:01:02;;;;;;;11.40;6.72;;;-1.20;99.90;;;;;;5116732;28;20124;-75
2021/12/27 01:03:28;;;;;;;12.70;7.00;;;0.00;99.90;;;;;;5098935;28;20059;-75
2021/12/27 01:05:54;;;;;;;11.77;6.80;;;-0.40;99.90;;;;;;5116988;28;20044;-75
2021/12/27 01:08:20;;;;;;;12.40;7.82;;;-0.80;99.90;;;;;;5098800;28;20047;-75
2021/12/27 01:11:10;;;;;;;13.00;7.10;;;0.00;99.90;;;;;;5116941;28;20077;-75
2021/12/27 01:13:45;;;;;;;10.70;6.47;;;-0.60;99.90;;;;;;5116864;28;20058;-74
2021/12/27 01:16:13;;;;;;;9.73;6.45;;;-0.80;99.90;;;;;;5117091;28;20086;-75
2021/12/27 01:18:45;;;;;;;12.25;6.95;;;-1.00;99.90;;;;;;5098319;28;20109;-75
2021/12/27 01:21:12;;;;;;;12.77;6.55;;;-1.00;99.90;;;;;;5117048;28;20487;-75
2021/12/27 01:23:38;;;;;;;11.57;7.30;;;0.80;99.90;;;;;;5116606;28;20505;-74
2021/12/27 01:26:04;;;;;;;12.57;8.15;;;-1.00;99.90;;;;;;5116536;28;20047;-75
2021/12/27 01:28:30;;;;;;;14.52;7.95;;;-1.00;99.90;;;;;;5117051;28;20444;-76
2021/12/27 01:30:56;;;;;;;11.52;6.57;;;-0.30;99.90;;;;;;5116742;28;20130;-75
2021/12/27 01:33:23;;;;;;;13.25;7.70;;;-1.00;99.90;;;;;;5116486;28;20051;-75
2021/12/27 01:35:49;;;;;;;11.68;7.35;;;-0.60;99.90;;;;;;5098514;28;20051;-75
2021/12/27 01:38:15;;;;;;;12.75;7.53;;;-1.10;99.90;;;;;;5116325;28;20052;-75
2021/12/27 01:40:43;;;;;;;12.43;7.15;;;-1.00;99.90;;;;;;5049198;28;20044;-75
2021/12/27 01:43:09;;;;;;;14.13;7.88;;;-1.20;99.90;;;;;;5116236;28;20048;-75
2021/12/27 01:45:42;;;;;;;12.80;6.72;;;-1.00;99.90;;;;;;5116181;28;20510;-72
2021/12/27 01:48:08;;;;;;;11.13;6.80;;;-0.90;99.90;;;;;;5098641;28;20051;-73
2021/12/27 01:50:37;;;;;;;10.43;6.97;;;-0.90;99.90;;;;;;5116053;28;20044;-72
2021/12/27 01:53:04;;;;;;;12.27;7.35;;;1.30;99.90;;;;;;5115987;28;20092;-73
2021/12/27 01:55:29;;;;;;;12.45;7.45;;;-1.10;99.90;;;;;;5098016;28;20081;-74
2021/12/27 01:57:55;;;;;;;12.73;7.32;;;-0.70;99.90;;;;;;5097682;28;20130;-74
2021/12/27 02:00:22;;;;;;;13.13;6.88;;;0.20;99.90;;;;;;5115854;28;20084;-74
2021/12/27 02:02:47;;;;;;;12.95;7.78;;;-0.70;99.90;;;;;;5097331;28;20054;-74
2021/12/27 02:05:14;;;;;;;10.80;7.47;;;-0.60;99.90;;;;;;5080345;28;20047;-74
2021/12/27 02:07:40;;;;;;;11.27;7.07;;;-0.80;99.90;;;;;;5097800;28;20531;-74
2021/12/27 02:10:08;;;;;;;11.48;7.30;;;-0.70;99.90;;;;;;5116448;28;20130;-75
2021/12/27 02:12:34;;;;;;;12.40;6.93;;;-0.70;99.90;;;;;;5116225;28;20402;-73
2021/12/27 02:15:03;;;;;;;12.70;7.25;;;-0.80;99.90;;;;;;5097628;28;20135;-74
2021/12/27 02:17:29;;;;;;;14.70;7.80;;;0.10;99.90;;;;;;5097142;28;20130;-75
2021/12/27 02:19:55;;;;;;;12.88;7.00;;;-0.80;99.90;;;;;;5115490;28;20083;-75
2021/12/27 02:22:21;;;;;;;13.90;7.43;;;-0.80;99.90;;;;;;5115443;28;20055;-75
2021/12/27 02:24:48;;;;;;;12.13;7.80;;;-0.70;99.90;;;;;;5081133;28;20051;-75
2021/12/27 02:27:15;;;;;;;12.60;7.07;;;0.40;99.90;;;;;;5114799;28;20492;-74
2021/12/27 02:29:42;;;;;;;14.13;7.95;;;0.10;99.90;;;;;;5097078;28;20055;-75
2021/12/27 02:32:08;;;;;;;12.57;7.28;;;0.60;99.90;;;;;;5080593;28;20052;-74
2021/12/27 02:34:34;;;;;;;11.88;7.57;;;-0.50;99.90;;;;;;5115191;28;20040;-75
2021/12/27 02:37:00;;;;;;;12.63;6.95;;;-0.70;99.90;;;;;;5097015;28;20050;-74
2021/12/27 02:39:28;;;;;;;11.52;7.38;;;-0.80;99.90;;;;;;5115156;28;20130;-75
2021/12/27 02:41:55;;;;;;;14.82;7.72;;;0.70;99.90;;;;;;5097138;28;20051;-74
2021/12/27 02:44:20;;;;;;;11.75;7.43;;;-0.70;99.90;;;;;;5079928;28;20039;-75
2021/12/27 02:46:46;;;;;;;13.07;7.53;;;-0.70;99.90;;;;;;5115708;28;20116;-74
2021/12/27 02:49:12;;;;;;;11.65;7.13;;;-0.60;99.90;;;;;;5080746;28;20085;-74
2021/12/27 02:51:37;;;;;;;15.82;8.15;;;-0.60;99.90;;;;;;5114975;28;20082;-74
2021/12/27 02:54:03;;;;;;;15.23;8.52;;;-0.40;99.90;;;;;;5079865;28;20036;-75
2021/12/27 02:56:30;;;;;;;11.65;7.13;;;-0.20;99.90;;;;;;5096933;28;20044;-74
2021/12/27 02:58:57;;;;;;;12.52;6.72;;;-0.20;99.90;;;;;;5097727;28;20395;-75
2021/12/27 03:01:24;;;;;;;12.93;8.60;;;-0.80;99.90;;;;;;5114746;28;20159;-74
2021/12/27 03:03:51;;;;;;;12.10;8.02;;;-0.60;99.90;;;;;;5114666;28;20040;-75
2021/12/27 03:06:18;;;;;;;14.52;8.00;;;-0.50;99.90;;;;;;5114696;28;20039;-75
2021/12/27 03:08:46;;;;;;;12.70;7.30;;;-0.30;99.90;;;;;;5115430;28;20478;-75
2021/12/27 03:11:12;;;;;;;12.15;6.68;;;1.40;99.90;;;;;;5097079;28;20051;-75
2021/12/27 03:13:44;;;;;;;15.27;7.72;;;-0.50;99.90;;;;;;5114541;28;20039;-74
2021/12/27 03:16:13;;;;;;;13.30;7.75;;;0.50;99.90;;;;;;5114529;28;20176;-74
2021/12/27 03:18:42;;;;;;;13.07;7.88;;;-0.10;99.90;;;;;;5096725;28;20075;-75
2021/12/27 03:21:08;;;;;;;12.70;7.53;;;-0.40;99.90;;;;;;5114420;28;20043;-74
2021/12/27 03:23:36;;;;;;;13.68;8.00;;;-0.50;99.90;;;;;;5114700;28;20054;-75
2021/12/27 03:26:02;;;;;;;13.30;7.85;;;0.20;99.90;;;;;;5114381;28;20119;-74
2021/12/27 03:28:28;;;;;;;14.43;8.20;;;0.50;99.90;;;;;;5114590;28;20063;-74
2021/12/27 03:30:54;;;;;;;14.10;8.48;;;-0.20;99.90;;;;;;5114307;28;20117;-75
2021/12/27 03:33:22;;;;;;;14.40;8.57;;;-0.50;99.90;;;;;;5114273;28;20043;-74
2021/12/27 03:35:51;;;;;;;13.55;8.80;;;0.40;99.90;;;;;;5114282;28;20126;-74
2021/12/27 03:38:17;;;;;;;16.88;9.43;;;-0.20;99.90;;;;;;5114773;28;20058;-74
2021/12/27 03:40:45;;;;;;;12.82;8.82;;;0.00;99.90;;;;;;5114178;28;20085;-74
2021/12/27 03:43:11;;;;;;;14.35;8.40;;;-0.70;99.90;;;;;;5096265;28;20054;-74
2021/12/27 03:45:39;;;;;;;15.32;7.97;;;-0.20;99.90;;;;;;5114199;28;20361;-74
2021/12/27 03:48:07;;;;;;;14.07;8.27;;;-0.20;99.90;;;;;;5079224;28;20471;-74
2021/12/27 03:50:33;;;;;;;14.85;8.90;;;0.50;99.90;;;;;;5095766;28;20048;-74
2021/12/27 03:52:59;;;;;;;13.60;8.95;;;0.30;99.90;;;;;;5114600;28;20130;-72
2021/12/27 03:55:27;;;;;;;13.50;9.30;;;0.10;99.90;;;;;;5114099;28;20051;-72
2021/12/27 03:57:55;;;;;;;14.88;9.18;;;0.60;99.90;;;;;;5096089;28;20097;-74
2021/12/27 04:00:43;;;;;;;14.70;8.85;;;-0.40;99.90;;;;;;5113994;28;20047;-74
2021/12/27 04:03:09;;;;;;;15.27;9.40;;;-0.30;99.90;;;;;;5114290;28;20490;-74
2021/12/27 04:05:34;;;;;;;16.05;9.85;;;-0.10;99.90;;;;;;5113894;28;20040;-75
2021/12/27 04:08:02;;;;;;;15.52;8.63;;;0.50;99.90;;;;;;5096818;28;20051;-74
2021/12/27 04:10:30;;;;;;;14.20;8.00;;;0.70;99.90;;;;;;5113836;28;20047;-74
2021/12/27 04:12:56;;;;;;;14.85;9.23;;;-0.20;99.90;;;;;;5096481;28;20051;-74
2021/12/27 04:15:22;;;;;;;13.38;8.27;;;0.00;99.90;;;;;;5095718;28;20051;-74
2021/12/27 04:17:48;;;;;;;15.48;8.82;;;0.20;99.90;;;;;;5095790;28;20104;-74
2021/12/27 04:20:14;;;;;;;18.58;8.38;;;-0.20;99.90;;;;;;5095869;28;20055;-74
2021/12/27 04:22:39;;;;;;;17.58;9.25;;;1.30;99.90;;;;;;5078787;28;20061;-74
2021/12/27 04:25:05;;;;;;;13.90;9.02;;;-0.30;99.90;;;;;;5078999;28;20126;-74
2021/12/27 04:27:31;;;;;;;12.93;7.97;;;-0.20;99.90;;;;;;5097731;28;20079;-73
2021/12/27 04:29:57;;;;;;;15.30;9.32;;;0.00;99.90;;;;;;5117628;28;20035;-74
2021/12/27 04:32:22;;;;;;;13.55;9.15;;;-0.20;99.90;;;;;;5117595;28;20047;-74
2021/12/27 04:34:48;;;;;;;15.55;9.07;;;0.90;99.90;;;;;;5117539;28;20047;-75
2021/12/27 04:37:14;;;;;;;14.50;8.98;;;-0.20;99.90;;;;;;5099098;28;20036;-74
2021/12/27 04:39:40;;;;;;;17.35;9.07;;;0.10;99.90;;;;;;5117487;28;20043;-74
2021/12/27 04:42:09;;;;;;;14.30;8.27;;;0.00;99.90;;;;;;5117442;28;20056;-75
2021/12/27 04:44:35;;;;;;;15.57;9.43;;;0.40;99.90;;;;;;5117359;28;20130;-75
2021/12/27 04:47:02;;;;;;;18.05;9.57;;;-0.20;99.90;;;;;;5117802;28;20130;-75
2021/12/27 04:49:27;;;;;;;18.10;9.50;;;0.00;99.90;;;;;;5117789;28;20051;-75
2021/12/27 04:51:53;;;;;;;14.43;9.55;;;0.10;99.90;;;;;;5099230;28;20047;-75
2021/12/27 04:54:19;;;;;;;16.75;9.45;;;0.10;99.90;;;;;;5118151;28;20040;-75
2021/12/27 04:56:46;;;;;;;13.43;8.70;;;0.10;99.90;;;;;;5117117;28;20047;-76
2021/12/27 04:59:12;;;;;;;20.08;10.05;;;1.10;99.90;;;;;;5117930;28;20376;-75
2021/12/27 05:01:38;;;;;;;18.10;9.68;;;0.60;99.90;;;;;;5117060;28;20043;-75
2021/12/27 05:04:04;;;;;;;15.60;8.80;;;-0.10;99.90;;;;;;5098870;28;20051;-75
2021/12/27 05:06:30;;;;;;;16.73;8.80;;;0.90;99.90;;;;;;5116946;28;20044;-75
2021/12/27 05:08:56;;;;;;;16.98;10.32;;;0.90;99.90;;;;;;5116809;28;20043;-75
2021/12/27 05:11:22;;;;;;;17.63;9.38;;;1.00;99.90;;;;;;5098724;28;20040;-75
2021/12/27 05:13:48;;;;;;;14.95;8.65;;;0.20;99.90;;;;;;5116839;28;20113;-74
2021/12/27 05:16:13;;;;;;;18.27;9.57;;;0.00;99.90;;;;;;5098548;28;20391;-75
2021/12/27 05:18:39;;;;;;;15.50;9.55;;;0.70;99.90;;;;;;5099474;28;20089;-74
2021/12/27 05:21:05;;;;;;;16.23;9.75;;;0.00;99.90;;;;;;5116714;28;20040;-75
2021/12/27 05:23:31;;;;;;;17.70;10.20;;;1.10;99.90;;;;;;5116619;28;20472;-75
2021/12/27 05:25:57;;;;;;;15.55;9.40;;;0.00;99.90;;;;;;5116552;28;20055;-75
2021/12/27 05:28:23;;;;;;;18.23;10.20;;;1.00;99.90;;;;;;5116631;28;20108;-75
2021/12/27 05:30:51;;;;;;;15.40;9.23;;;0.50;99.90;;;;;;5117332;28;20132;-75
2021/12/27 05:33:18;;;;;;;18.83;9.88;;;1.30;99.90;;;;;;5098472;28;20400;-75
2021/12/27 05:35:44;;;;;;;16.45;9.43;;;0.00;99.90;;;;;;5116453;28;20101;-75
2021/12/27 05:38:10;;;;;;;16.10;10.05;;;0.00;99.90;;;;;;5116061;28;20044;-75
2021/12/27 05:40:37;;;;;;;18.77;9.13;;;0.90;99.90;;;;;;5116858;28;20317;-76
2021/12/27 05:43:03;;;;;;;16.35;9.57;;;-0.20;99.90;;;;;;5116305;28;20058;-75
2021/12/27 05:45:29;;;;;;;17.23;9.45;;;0.30;99.90;;;;;;5098896;28;20044;-76
2021/12/27 05:47:55;;;;;;;17.52;9.75;;;0.10;99.90;;;;;;5098113;28;20069;-75
2021/12/27 05:50:21;;;;;;;16.92;10.02;;;1.20;99.90;;;;;;5097636;28;20059;-75
2021/12/27 05:52:47;;;;;;;16.92;10.52;;;0.10;99.90;;;;;;5116147;28;20395;-75
2021/12/27 05:55:13;;;;;;;16.08;9.40;;;0.20;99.90;;;;;;5097859;28;20047;-75
2021/12/27 05:57:39;;;;;;;15.45;9.10;;;0.80;99.90;;;;;;5115959;28;20051;-76
2021/12/27 06:00:08;;;;;;;15.38;9.02;;;0.20;99.90;;;;;;5097976;28;20055;-75
2021/12/27 06:02:33;;;;;;;16.80;9.45;;;0.20;99.90;;;;;;5115807;28;20047;-76
2021/12/27 06:04:59;;;;;;;17.13;9.35;;;0.10;99.90;;;;;;5115837;28;20088;-76
2021/12/27 06:07:25;;;;;;;18.27;9.88;;;0.40;99.90;;;;;;5098634;28;20456;-73
2021/12/27 06:09:50;;;;;;;14.10;9.52;;;0.80;99.90;;;;;;5115671;28;20047;-73
2021/12/27 06:12:16;;;;;;;15.90;8.93;;;0.40;99.90;;;;;;5098041;28;20075;-76
2021/12/27 06:14:42;;;;;;;14.63;9.10;;;0.70;99.90;;;;;;5115666;28;20044;-75
2021/12/27 06:17:08;;;;;;;17.40;10.25;;;0.60;99.90;;;;;;5080341;28;20047;-74
2021/12/27 06:19:33;;;;;;;17.05;9.00;;;0.20;99.90;;;;;;5115532;28;20047;-74
2021/12/27 06:22:00;;;;;;;18.05;10.00;;;1.20;99.90;;;;;;5115476;28;20044;-74
2021/12/27 06:24:26;;;;;;;17.27;9.63;;;0.20;99.90;;;;;;5098266;28;20097;-74
2021/12/27 06:26:52;;;;;;;16.90;9.63;;;0.40;99.90;;;;;;5116285;28;20436;-74
2021/12/27 06:29:18;;;;;;;16.58;10.13;;;1.40;99.90;;;;;;5115476;28;20052;-74
2021/12/27 06:31:43;;;;;;;15.35;9.57;;;0.30;99.90;;;;;;5115305;28;20054;-74
2021/12/27 06:34:09;;;;;;;16.85;9.50;;;0.40;99.90;;;;;;5115274;28;20043;-73
2021/12/27 06:36:35;;;;;;;20.17;9.85;;;0.30;99.90;;;;;;5115524;28;20466;-74
2021/12/27 06:39:03;;;;;;;16.52;9.73;;;0.90;99.90;;;;;;5115156;28;20078;-74
2021/12/27 06:41:29;;;;;;;16.05;10.52;;;0.70;99.90;;;;;;5115389;28;20048;-75
2021/12/27 06:43:55;;;;;;;16.15;10.02;;;1.00;99.90;;;;;;5115101;28;20391;-73
2021/12/27 06:46:21;;;;;;;17.45;9.10;;;0.80;99.90;;;;;;5097074;28;20046;-75
2021/12/27 06:48:46;;;;;;;19.52;9.88;;;0.30;99.90;;;;;;5114497;28;20039;-74
2021/12/27 06:51:12;;;;;;;17.65;11.13;;;0.70;99.90;;;;;;5096703;28;20043;-74
2021/12/27 06:53:38;;;;;;;15.95;9.32;;;0.30;99.90;;;;;;5114919;28;20066;-74
2021/12/27 06:56:05;;;;;;;15.15;8.57;;;0.40;99.90;;;;;;5115181;28;20051;-74
2021/12/27 06:58:31;;;;;;;15.23;10.07;;;0.50;99.90;;;;;;5114761;28;20048;-74
2021/12/27 07:00:56;;;;;;;16.50;9.35;;;0.20;99.90;;;;;;5115557;28;20459;-74
2021/12/27 07:03:22;;;;;;;16.88;9.73;;;0.50;99.90;;;;;;5114782;28;20483;-74
2021/12/27 07:05:48;;;;;;;15.68;9.30;;;1.20;99.90;;;;;;5114688;28;20044;-74
2021/12/27 07:08:15;;;;;;;17.52;9.85;;;0.20;99.90;;;;;;5096732;28;20047;-74
2021/12/27 07:10:41;;;;;;;18.17;9.77;;;0.30;99.90;;;;;;5114562;28;20479;-74
2021/12/27 07:13:09;;;;;;;16.45;10.10;;;0.20;99.90;;;;;;5080043;28;20051;-74
2021/12/27 07:15:41;;;;;;;17.30;10.07;;;0.40;99.90;;;;;;5114479;28;20061;-74
2021/12/27 07:18:10;;;;;;;15.75;9.35;;;0.50;99.90;;;;;;5114540;28;20047;-74
2021/12/27 07:20:36;;;;;;;15.07;8.73;;;1.30;99.90;;;;;;5114962;28;20083;-74
2021/12/27 07:23:04;;;;;;;19.50;10.73;;;0.20;99.90;;;;;;5114362;28;20106;-74
2021/12/27 07:25:30;;;;;;;17.08;9.70;;;0.30;99.90;;;;;;5114386;28;20131;-74
2021/12/27 07:27:56;;;;;;;18.63;9.95;;;0.30;99.90;;;;;;5114445;28;20138;-74
2021/12/27 07:30:21;;;;;;;18.20;10.00;;;1.00;99.90;;;;;;5114265;28;20051;-73
2021/12/27 07:32:47;;;;;;;17.42;9.77;;;1.00;99.90;;;;;;5115137;28;20047;-73
2021/12/27 07:35:13;;;;;;;16.08;9.38;;;0.60;99.90;;;;;;5114877;28;20429;-74
2021/12/27 07:37:40;;;;;;;17.95;10.38;;;0.40;99.90;;;;;;5114191;28;20048;-74
2021/12/27 07:40:06;;;;;;;16.23;10.38;;;0.60;99.90;;;;;;5114750;28;20044;-74
2021/12/27 07:42:32;;;;;;;17.42;10.20;;;0.40;99.90;;;;;;5114502;28;20196;-73
2021/12/27 07:44:58;;;;;;;19.52;9.90;;;0.50;99.90;;;;;;5114725;28;20130;-73
2021/12/27 07:47:23;;;;;;;20.02;10.77;;;1.60;99.90;;;;;;5114111;28;20053;-74
2021/12/27 07:49:49;;;;;;;18.25;10.10;;;0.40;99.90;;;;;;5114005;28;20365;-73
2021/12/27 07:52:15;;;;;;;20.20;10.80;;;0.50;99.90;;;;;;5114064;28;20054;-74
2021/12/27 07:54:41;;;;;;;19.30;10.80;;;0.40;99.90;;;;;;5096716;28;20051;-74
2021/12/27 07:57:07;;;;;;;17.08;9.60;;;0.50;99.90;;;;;;5114050;28;20138;-74
2021/12/27 07:59:32;;;;;;;15.88;9.45;;;1.10;99.90;;;;;;5113958;28;20039;-74
2021/12/27 08:01:59;;;;;;;18.45;10.63;;;2.50;99.90;;;;;;5100118;28;20051;-74
2021/12/27 08:04:25;;;;;;;18.65;10.77;;;0.70;99.90;;;;;;5118140;28;20043;-73
2021/12/27 08:06:51;;;;;;;17.45;10.68;;;0.80;99.90;;;;;;5083937;28;20147;-74
2021/12/27 08:09:17;;;;;;;17.90;10.65;;;0.60;99.90;;;;;;5118469;28;20130;-75
2021/12/27 08:11:43;;;;;;;23.17;10.55;;;0.80;99.90;;;;;;5117878;28;20474;-75
2021/12/27 08:14:08;;;;;;;17.98;10.88;;;0.60;99.90;;;;;;5099798;28;20044;-74
2021/12/27 08:16:34;;;;;;;19.15;10.18;;;0.80;99.90;;;;;;5099751;28;20494;-76
2021/12/27 08:19:00;;;;;;;19.30;10.30;;;0.50;99.90;;;;;;5118326;28;20543;-76
2021/12/27 08:21:26;;;;;;;19.45;10.00;;;0.60;99.90;;;;;;5117845;28;20075;-77
2021/12/27 08:23:53;;;;;;;17.48;10.23;;;1.50;99.90;;;;;;5117807;28;20043;-76
2021/12/27 08:26:19;;;;;;;16.80;10.50;;;0.70;99.90;;;;;;5100040;28;20046;-77
2021/12/27 08:28:47;;;;;;;19.33;11.80;;;0.80;99.90;;;;;;5118437;28;20367;-82
2021/12/27 08:31:13;;;;;;;16.65;10.32;;;0.70;99.90;;;;;;5117621;28;20049;-78
2021/12/27 08:33:39;;;;;;;17.65;10.15;;;0.70;99.90;;;;;;5118426;28;20130;-77
2021/12/27 08:36:05;;;;;;;18.05;10.20;;;0.70;99.90;;;;;;5117640;28;20051;-79
2021/12/27 08:38:31;;;;;;;17.55;10.25;;;0.60;99.90;;;;;;5099865;28;20043;-78
2021/12/27 08:40:57;;;;;;;21.92;11.32;;;0.60;99.90;;;;;;5117500;28;20051;-78
2021/12/27 08:43:24;;;;;;;19.65;11.43;;;0.80;99.90;;;;;;5099234;28;20039;-78
2021/12/27 08:45:50;;;;;;;21.13;11.10;;;0.80;99.90;;;;;;5117417;28;20074;-77
2021/12/27 08:48:16;;;;;;;18.30;10.80;;;0.90;99.90;;;;;;5082680;28;20107;-77
2021/12/27 08:50:42;;;;;;;22.27;11.10;;;0.80;99.90;;;;;;5117235;28;20096;-78
2021/12/27 08:53:08;;;;;;;22.20;11.93;;;0.70;99.90;;;;;;5099333;28;20048;-79
2021/12/27 08:55:35;;;;;;;19.35;10.68;;;0.90;99.90;;;;;;5117257;28;20051;-76
2021/12/27 08:58:02;;;;;;;16.80;10.43;;;0.90;99.90;;;;;;5099169;28;20050;-79
2021/12/27 09:00:28;;;;;;;21.02;11.68;;;0.80;99.90;;;;;;5100032;28;20047;-79
2021/12/27 09:02:54;;;;;;;18.60;10.75;;;1.00;99.90;;;;;;5117145;28;20057;-84
2021/12/27 09:05:19;;;;;;;21.45;11.63;;;1.80;99.90;;;;;;5100163;28;20100;-78
2021/12/27 09:07:45;;;;;;;19.92;10.75;;;0.80;99.90;;;;;;5117254;28;20052;-84
2021/12/27 09:10:11;;;;;;;19.85;10.57;;;2.10;99.90;;;;;;5117263;28;20047;-84
2021/12/27 09:12:39;;;;;;;22.55;11.13;;;1.10;99.90;;;;;;5098174;28;20062;-79
2021/12/27 09:15:07;;;;;;;19.20;11.40;;;0.90;99.90;;;;;;5083113;28;20055;-81
2021/12/27 09:17:33;;;;;;;23.80;12.02;;;0.90;99.90;;;;;;5117573;28;20052;-81
2021/12/27 09:19:59;;;;;;;19.38;11.40;;;0.80;99.90;;;;;;5099014;28;20490;-81
2021/12/27 09:22:25;;;;;;;18.85;10.88;;;0.80;99.90;;;;;;5116682;28;20181;-81
2021/12/27 09:24:51;;;;;;;22.77;11.32;;;1.20;99.90;;;;;;5116688;28;20130;-81
2021/12/27 09:27:18;;;;;;;21.13;11.65;;;1.30;99.90;;;;;;5116597;28;20051;-80
2021/12/27 09:29:44;;;;;;;21.15;11.07;;;1.10;99.90;;;;;;5117121;28;20106;-80
2021/12/27 09:32:11;;;;;;;20.90;11.43;;;2.90;99.90;;;;;;5113814;28;20514;-79
2021/12/27 09:34:40;;;;;;;21.35;12.40;;;1.80;99.90;;;;;;5113587;28;20125;-79
2021/12/27 09:37:06;;;;;;;18.67;11.23;;;0.90;99.90;;;;;;5095979;28;20452;-76
2021/12/27 09:39:32;;;;;;;18.02;10.23;;;2.20;99.90;;;;;;5096400;28;20448;-74
2021/12/27 09:41:58;;;;;;;20.08;11.55;;;1.30;99.90;;;;;;5095976;28;20047;-71
2021/12/27 09:44:24;;;;;;;23.73;11.63;;;1.70;99.90;;;;;;5096464;28;20044;-72
2021/12/27 09:46:50;;;;;;;20.98;12.00;;;1.20;99.90;;;;;;5113684;28;20468;-72
2021/12/27 09:49:17;;;;;;;18.08;10.43;;;1.30;99.90;;;;;;5113422;28;20086;-71
2021/12/27 09:51:45;;;;;;;20.48;10.85;;;1.50;99.90;;;;;;5114022;28;20456;-70
2021/12/27 09:54:10;;;;;;;16.48;10.02;;;1.20;99.90;;;;;;5096145;28;20078;-73
2021/12/27 09:56:36;;;;;;;22.88;11.98;;;1.10;99.90;;;;;;5113668;28;20512;-71
2021/12/27 09:59:04;;;;;;;23.05;11.27;;;2.30;99.90;;;;;;5113807;28;20433;-71
2021/12/27 10:01:30;;;;;;;19.25;11.25;;;1.10;99.90;;;;;;5113213;28;20071;-70
2021/12/27 10:03:59;;;;;;;21.35;12.00;;;1.50;99.90;;;;;;5095490;28;20418;-71
2021/12/27 10:06:27;;;;;;;22.63;11.48;;;1.20;99.90;;;;;;5095516;28;20083;-72
2021/12/27 10:08:56;;;;;;;21.30;11.95;;;1.70;99.90;;;;;;5113298;28;20043;-72
2021/12/27 10:11:31;;;;;;;20.85;11.02;;;1.70;99.90;;;;;;5113813;28;20067;-71
2021/12/27 10:14:23;;;;;;;22.70;12.25;;;1.20;99.90;;;;;;5113967;28;20085;-74
2021/12/27 10:16:54;;;;;;;21.90;11.82;;;1.30;99.90;;;;;;5097716;28;20471;-74
2021/12/27 10:19:22;;;;;;;25.58;12.13;;;1.80;99.90;;;;;;5115496;28;20055;-74
2021/12/27 10:21:51;;;;;;;20.77;11.20;;;1.90;99.90;;;;;;5097066;28;20127;-74
2021/12/27 10:24:20;;;;;;;22.20;12.55;;;2.30;99.90;;;;;;5114474;28;20052;-75
2021/12/27 10:26:49;;;;;;;24.63;12.65;;;1.40;99.90;;;;;;5115474;28;20061;-74
2021/12/27 10:29:44;;;;;;;24.65;12.38;;;2.00;99.90;;;;;;5096841;28;20051;-75
2021/12/27 10:32:14;;;;;;;25.98;12.88;;;1.40;99.90;;;;;;5097257;28;20052;-74
2021/12/27 10:34:43;;;;;;;26.90;12.65;;;1.60;99.90;;;;;;5115292;28;20074;-75
2021/12/27 10:37:26;;;;;;;29.05;13.15;;;1.60;99.90;;;;;;5115210;28;20130;-76
2021/12/27 10:39:56;;;;;;;24.50;12.77;;;1.40;99.90;;;;;;5115127;28;20044;-76
2021/12/27 10:42:33;;;;;;;28.00;14.23;;;1.30;99.90;;;;;;5097293;28;20054;-75
2021/12/27 10:45:11;;;;;;;21.50;11.68;;;1.50;99.90;;;;;;5137576;27;1290119;-74
2021/12/27 10:47:43;;;;;;;24.95;12.43;;;1.50;99.90;;;;;;5133355;27;20122;-75
2021/12/27 10:50:23;;;;;;;23.05;12.68;;;2.60;99.90;;;;;;5134036;27;20093;-74
2021/12/27 10:52:54;;;;;;;21.67;11.65;;;1.60;99.90;;;;;;5134036;27;20050;-76
2021/12/27 10:55:48;;;;;;;22.83;12.10;;;1.60;99.90;;;;;;5152237;27;20039;-81
2021/12/27 10:58:19;;;;;;;23.42;12.35;;;2.00;99.90;;;;;;5149094;27;20079;-78
2021/12/27 11:00:53;;;;;;;23.52;12.63;;;1.60;99.90;;;;;;5152176;27;20047;-76
2021/12/27 11:03:33;;;;;;;24.02;12.52;;;1.70;99.90;;;;;;5114883;27;20479;-75
2021/12/27 11:06:03;;;;;;;23.88;11.82;;;1.70;99.90;;;;;;5132218;27;20079;-75
2021/12/27 11:08:30;;;;;;;27.08;12.32;;;1.90;99.90;;;;;;5151890;27;20455;-76
2021/12/27 11:10:56;;;;;;;22.67;12.00;;;2.10;99.90;;;;;;5151868;27;20074;-75
2021/12/27 11:13:24;;;;;;;26.98;13.25;;;2.50;99.90;;;;;;5133559;27;20043;-76
2021/12/27 11:15:50;;;;;;;24.10;13.75;;;2.40;99.90;;;;;;5151784;27;20050;-76
2021/12/27 11:18:16;;;;;;;28.88;12.35;;;2.30;99.90;;;;;;5132805;27;20487;-75
2021/12/27 11:20:50;;;;;;;31.45;14.13;;;1.70;99.90;;;;;;5151334;27;20073;-75
2021/12/27 11:23:16;;;;;;;25.10;13.95;;;2.20;99.90;;;;;;5149484;27;20039;-78
2021/12/27 11:25:44;;;;;;;26.80;13.38;;;2.70;99.90;;;;;;5151649;27;20094;-77
2021/12/27 11:28:27;;;;;;;29.70;13.35;;;2.00;99.90;;;;;;5151487;27;20035;-77
2021/12/27 11:30:54;;;;;;;26.93;13.40;;;2.20;99.90;;;;;;5149018;27;20078;-76
2021/12/27 11:33:22;;;;;;;27.75;13.20;;;2.70;99.90;;;;;;5151455;27;20347;-77
2021/12/27 11:35:57;;;;;;;30.05;14.60;;;2.20;99.90;;;;;;5132939;27;20498;-78
2021/12/27 11:38:43;;;;;;;26.90;13.30;;;2.40;99.90;;;;;;5151379;27;20551;-76
2021/12/27 11:41:24;;;;;;;24.98;12.43;;;2.70;99.90;;;;;;5151239;27;20043;-78
2021/12/27 11:44:04;;;;;;;30.00;14.43;;;1.90;99.90;;;;;;5151166;27;20398;-79
2021/12/27 11:46:49;;;;;;;29.75;14.52;;;1.80;99.90;;;;;;5110396;28;20407;-78
2021/12/27 11:49:16;;;;;;;29.10;14.88;;;2.00;99.90;;;;;;5100212;28;20043;-77
2021/12/27 11:51:46;;;;;;;29.60;12.75;;;2.10;99.90;;;;;;5109533;28;20475;-78
2021/12/27 11:54:33;;;;;;;28.85;13.07;;;2.20;99.90;;;;;;5105980;28;20039;-77
2021/12/27 11:56:59;;;;;;;33.58;14.25;;;2.00;99.90;;;;;;5085485;28;20497;-79
2021/12/27 11:59:24;;;;;;;32.75;14.98;;;2.30;99.90;;;;;;5095591;28;20063;-77
2021/12/27 12:01:52;;;;;;;28.75;13.70;;;2.30;99.90;;;;;;5095199;28;20507;-76
2021/12/27 12:04:44;;;;;;;30.52;15.23;;;2.70;99.90;;;;;;5096437;28;20040;-79
2021/12/27 12:07:11;;;;;;;29.95;15.07;;;1.80;99.90;;;;;;5096151;28;20044;-76
2021/12/27 12:09:47;;;;;;;32.20;14.50;;;1.80;99.90;;;;;;5095962;28;20093;-77
2021/12/27 12:12:14;;;;;;;34.40;15.35;;;2.30;99.90;;;;;;5093761;28;20054;-79
2021/12/27 12:14:42;;;;;;;36.45;16.48;;;2.00;99.90;;;;;;5094455;28;20075;-78
2021/12/27 12:17:15;;;;;;;33.72;15.55;;;1.80;99.90;;;;;;5095424;28;20071;-75
2021/12/27 12:19:47;;;;;;;33.15;15.10;;;2.60;99.90;;;;;;5077101;28;20060;-76
2021/12/27 12:22:34;;;;;;;42.22;17.10;;;2.80;99.90;;;;;;5092207;28;20104;-79
2021/12/27 12:25:19;;;;;;;36.58;15.50;;;1.90;99.90;;;;;;5095766;28;20074;-80
2021/12/27 12:28:00;;;;;;;33.25;16.00;;;1.90;99.90;;;;;;5095755;28;20040;-79
2021/12/27 12:30:32;;;;;;;37.40;16.25;;;2.10;99.90;;;;;;5095772;28;20110;-82
2021/12/27 12:32:59;;;;;;;35.17;16.15;;;2.20;99.90;;;;;;5092712;28;20455;-79
2021/12/27 12:35:45;;;;;;;39.10;15.60;;;1.90;99.90;;;;;;5095246;28;20036;-77
2021/12/27 12:38:24;;;;;;;36.35;16.48;;;2.70;99.90;;;;;;5094360;28;20040;-79
2021/12/27 12:41:14;;;;;;;37.72;16.48;;;2.00;99.90;;;;;;5095405;28;20058;-76
2021/12/27 12:43:46;;;;;;;38.60;15.82;;;1.90;99.90;;;;;;5095305;28;20364;-77